Time;durP1;ratioP1;P1;durP2;ratioP2;P2;SDS_P1;SDS_P2;PMS_P1;PMS_P2;Temp;Humidity;BMP_temperature;BMP_pressure;BME280_temperature;BME280_humidity;BME280_pressure;Samples;Min_cycle;Max_cycle;Signal;HPM_P1;HPM_P2
2023/12/19 00:00:35;;;;;;;1.65;1.45;;;;;;;2.61;59.32;101055.53;5325759;26;20119;-88
2023/12/19 00:03:00;;;;;;;2.83;1.37;;;;;;;2.58;59.33;101056.28;5306513;26;23911;-87
2023/12/19 00:05:26;;;;;;;6.40;4.00;;;;;;;2.69;59.32;101046.25;5324415;26;24259;-88
2023/12/19 00:07:51;;;;;;;1.98;1.73;;;;;;;2.46;59.31;101054.34;5324129;26;28748;-89
2023/12/19 00:10:16;;;;;;;2.40;2.25;;;;;;;2.44;59.31;101050.00;5344529;26;20108;-89
2023/12/19 00:12:42;;;;;;;2.03;1.92;;;;;;;2.38;59.31;101053.31;5305945;26;23672;-88
2023/12/19 00:15:08;;;;;;;1.40;1.30;;;;;;;2.34;59.30;101043.78;5325058;26;20117;-88
2023/12/19 00:17:33;;;;;;;0.93;0.90;;;;;;;2.23;59.30;101046.97;5306550;26;20052;-88
2023/12/19 00:19:59;;;;;;;2.95;2.72;;;;;;;2.24;59.30;101054.72;5324856;26;20097;-89
2023/12/19 00:22:24;;;;;;;2.90;2.72;;;;;;;2.29;59.30;101045.41;5287758;26;20127;-89
2023/12/19 00:24:50;;;;;;;2.72;2.53;;;;;;;2.12;59.29;101051.84;5306765;26;20100;-88
2023/12/19 00:27:16;;;;;;;0.10;0.10;;;;;;;2.28;59.29;101045.38;5306676;26;20090;-88
2023/12/19 00:29:41;;;;;;;7.53;5.37;;;;;;;2.06;59.29;101050.00;5306215;26;20071;-88
2023/12/19 00:32:07;;;;;;;2.75;2.10;;;;;;;2.15;59.30;101050.25;5305947;26;20068;-87
2023/12/19 00:34:32;;;;;;;5.43;4.45;;;;;;;2.13;59.29;101051.03;5287769;26;21622;-88
2023/12/19 00:36:58;;;;;;;3.00;2.30;;;;;;;2.13;59.30;101054.47;5324705;26;20052;-88
2023/12/19 00:39:23;;;;;;;3.70;3.40;;;;;;;2.14;59.29;101053.66;5306347;26;20067;-88
2023/12/19 00:41:48;;;;;;;10.38;4.15;;;;;;;2.13;59.29;101053.63;5287606;26;20124;-88
2023/12/19 00:44:14;;;;;;;1.67;1.58;;;;;;;2.08;59.29;101056.03;5305833;26;26490;-88
2023/12/19 00:46:43;;;;;;;6.47;3.83;;;;;;;2.14;59.29;101051.06;5324362;26;20816;-88
2023/12/19 00:49:09;;;;;;;1.37;1.33;;;;;;;2.10;59.29;101059.50;5306984;26;20071;-88
2023/12/19 00:51:34;;;;;;;1.33;1.30;;;;;;;2.03;59.28;101067.06;5306478;26;20137;-88
2023/12/19 00:53:59;;;;;;;2.97;2.78;;;;;;;2.08;59.29;101068.03;5305818;26;20431;-88
2023/12/19 00:56:25;;;;;;;1.35;1.27;;;;;;;2.17;59.29;101069.97;5324091;26;27541;-88
2023/12/19 00:58:50;;;;;;;5.22;3.55;;;;;;;2.36;59.31;101066.94;5287071;26;31952;-88
2023/12/19 01:01:21;;;;;;;6.82;3.85;;;;;;;2.36;59.31;101057.53;5305513;26;28842;-88
2023/12/19 01:03:46;;;;;;;2.05;1.67;;;;;;;2.47;59.31;101055.22;5324725;26;20060;-87
2023/12/19 01:06:12;;;;;;;4.03;3.33;;;;;;;2.38;59.31;101055.03;5323999;26;28876;-87
2023/12/19 01:08:38;;;;;;;5.22;3.90;;;;;;;2.16;59.30;101045.97;5344668;26;20104;-87
2023/12/19 01:11:03;;;;;;;5.30;3.65;;;;;;;2.10;59.29;101056.09;5287231;26;26976;-88
2023/12/19 01:13:29;;;;;;;2.33;2.12;;;;;;;2.06;59.29;101050.00;5324450;26;20063;-86
2023/12/19 01:15:54;;;;;;;12.05;5.07;;;;;;;2.26;59.30;101053.03;5306264;26;20060;-87
2023/12/19 01:18:19;;;;;;;2.58;2.47;;;;;;;2.08;59.29;101060.31;5287122;26;36765;-87
2023/12/19 01:20:47;;;;;;;2.85;2.65;;;;;;;2.09;59.29;101057.78;5305751;26;27457;-88
2023/12/19 01:23:12;;;;;;;7.35;5.22;;;;;;;1.98;59.29;101064.37;5307019;26;20052;-88
2023/12/19 01:25:39;;;;;;;13.60;4.32;;;;;;;2.15;59.29;101067.34;5324490;26;20086;-87
2023/12/19 01:28:05;;;;;;;0.93;0.93;;;;;;;2.32;59.30;101058.31;5306193;26;20372;-87
2023/12/19 01:30:30;;;;;;;3.58;3.28;;;;;;;2.44;59.31;101053.44;5287870;26;20060;-87
2023/12/19 01:32:55;;;;;;;5.40;3.45;;;;;;;2.44;59.31;101060.28;5305965;26;20150;-87
2023/12/19 01:35:21;;;;;;;6.00;5.12;;;;;;;2.50;59.31;101054.41;5287463;26;20080;-87
2023/12/19 01:37:46;;;;;;;3.78;3.42;;;;;;;2.56;59.31;101046.81;5286880;26;22258;-86
2023/12/19 01:40:11;;;;;;;0.80;0.77;;;;;;;2.53;59.32;101057.91;5343827;26;23413;-87
2023/12/19 01:42:38;;;;;;;8.07;4.30;;;;;;;2.54;59.31;101045.94;5324446;26;30036;-87
2023/12/19 01:45:08;;;;;;;8.10;2.62;;;;;;;2.63;59.32;101044.44;5307297;26;20106;-87
2023/12/19 01:47:34;;;;;;;1.67;1.58;;;;;;;2.61;59.32;101029.81;5345342;26;20123;-87
2023/12/19 01:49:59;;;;;;;1.90;1.80;;;;;;;2.71;59.32;101024.88;5306531;26;24394;-87
2023/12/19 01:52:24;;;;;;;1.48;1.37;;;;;;;2.77;59.33;101019.00;5324505;26;32958;-87
2023/12/19 01:54:50;;;;;;;21.60;6.32;;;;;;;2.75;59.33;101010.37;5324662;26;28002;-87
2023/12/19 01:57:15;;;;;;;1.98;1.87;;;;;;;2.91;59.33;101001.28;5345184;26;20111;-87
2023/12/19 01:59:41;;;;;;;4.20;3.85;;;;;;;2.93;59.33;100990.16;5325475;26;20138;-87
2023/12/19 02:02:06;;;;;;;3.17;2.90;;;;;;;2.77;59.33;100989.00;5325291;26;20362;-87
2023/12/19 02:04:31;;;;;;;4.20;3.87;;;;;;;2.77;59.33;100994.16;5324788;26;23943;-87
2023/12/19 02:06:57;;;;;;;2.15;1.95;;;;;;;2.64;59.33;100994.75;5324827;26;28787;-88
2023/12/19 02:09:23;;;;;;;3.10;2.85;;;;;;;2.62;59.32;100988.72;5324305;26;33075;-87
2023/12/19 02:11:48;;;;;;;2.15;1.75;;;;;;;2.65;59.33;100982.78;5289209;26;20162;-88
2023/12/19 02:14:13;;;;;;;14.75;6.00;;;;;;;2.76;59.33;100974.41;5287598;26;36880;-87
2023/12/19 02:16:39;;;;;;;4.90;3.28;;;;;;;2.61;59.32;100976.72;5306688;26;20080;-86
2023/12/19 02:19:05;;;;;;;4.78;4.40;;;;;;;2.89;59.34;100979.81;5307097;26;20078;-87
2023/12/19 02:21:30;;;;;;;1.87;1.77;;;;;;;2.99;59.34;100976.56;5306940;26;20076;-87
2023/12/19 02:23:56;;;;;;;0.95;0.95;;;;;;;2.74;59.33;100981.22;5306915;26;20154;-87
2023/12/19 02:26:22;;;;;;;3.75;3.45;;;;;;;2.54;59.31;100985.09;5306798;26;20373;-87
2023/12/19 02:28:52;;;;;;;4.22;3.45;;;;;;;2.60;59.32;100974.97;5306663;26;20170;-89
2023/12/19 02:31:17;;;;;;;1.35;1.30;;;;;;;2.90;59.34;100976.41;5308560;26;20044;-88
2023/12/19 02:33:43;;;;;;;7.30;4.32;;;;;;;2.91;59.33;100965.25;5306939;26;20040;-88
2023/12/19 02:36:08;;;;;;;6.82;5.00;;;;;;;2.64;59.33;100974.19;5288490;26;20087;-89
2023/12/19 02:38:34;;;;;;;3.62;2.65;;;;;;;2.81;59.33;100971.06;5325209;26;20076;-88
2023/12/19 02:40:59;;;;;;;2.28;1.87;;;;;;;2.82;59.33;100971.09;5324429;26;24574;-88
2023/12/19 02:43:24;;;;;;;6.80;4.72;;;;;;;2.82;59.33;100973.66;5305845;26;32414;-88
2023/12/19 02:45:50;;;;;;;3.28;3.08;;;;;;;2.58;59.32;100970.59;5325217;26;20083;-89
2023/12/19 02:48:15;;;;;;;2.55;1.87;;;;;;;2.60;59.32;100979.22;5325331;26;20502;-88
2023/12/19 02:50:41;;;;;;;1.10;1.08;;;;;;;2.72;59.33;100975.19;5325129;26;20405;-88
2023/12/19 02:53:06;;;;;;;2.20;2.00;;;;;;;2.62;59.32;100986.16;5325141;26;20092;-88
2023/12/19 02:55:31;;;;;;;4.12;3.78;;;;;;;2.58;59.32;100979.19;5324392;26;26863;-88
2023/12/19 02:57:57;;;;;;;2.65;2.45;;;;;;;2.71;59.32;100976.03;5325014;26;20108;-88
2023/12/19 03:00:24;;;;;;;2.17;2.08;;;;;;;2.63;59.32;100977.59;5325369;26;20079;-88
2023/12/19 03:02:49;;;;;;;3.22;1.85;;;;;;;2.62;59.32;100972.44;5325477;26;20051;-88
2023/12/19 03:05:15;;;;;;;1.65;1.55;;;;;;;2.44;59.31;100980.63;5325407;26;20057;-88
2023/12/19 03:07:40;;;;;;;0.65;0.65;;;;;;;2.62;59.32;100985.28;5325029;26;20057;-88
2023/12/19 03:10:08;;;;;;;0.57;0.57;;;;;;;2.58;59.32;100975.75;5306406;26;21458;-88
2023/12/19 03:12:33;;;;;;;5.90;4.22;;;;;;;2.52;59.32;100962.78;5325373;26;20049;-88
2023/12/19 03:14:59;;;;;;;2.08;1.95;;;;;;;2.53;59.31;100960.25;5306515;26;20112;-87
2023/12/19 03:17:24;;;;;;;1.90;1.02;;;;;;;2.62;59.32;100951.87;5324237;26;27672;-88
2023/12/19 03:19:49;;;;;;;1.17;1.17;;;;;;;2.35;59.30;100949.59;5323971;26;37750;-88
2023/12/19 03:22:15;;;;;;;3.42;2.65;;;;;;;2.53;59.32;100947.41;5324793;26;20056;-88
2023/12/19 03:24:40;;;;;;;4.78;3.67;;;;;;;2.67;59.32;100947.69;5325163;26;20122;-88
2023/12/19 03:27:06;;;;;;;8.15;5.45;;;;;;;2.41;59.30;100944.59;5324189;26;30736;-87
2023/12/19 03:29:32;;;;;;;5.95;3.25;;;;;;;2.42;59.30;100948.91;5325192;26;20083;-88
2023/12/19 03:31:58;;;;;;;2.25;1.90;;;;;;;2.44;59.31;100944.66;5325355;26;20067;-87
2023/12/19 03:34:23;;;;;;;7.47;3.47;;;;;;;2.59;59.32;100947.50;5305816;26;30742;-88
2023/12/19 03:36:49;;;;;;;1.62;1.52;;;;;;;2.50;59.32;100947.34;5325041;26;20356;-88
2023/12/19 03:39:14;;;;;;;1.70;1.05;;;;;;;2.46;59.31;100958.41;5324871;26;20071;-87
2023/12/19 03:41:40;;;;;;;3.58;2.92;;;;;;;2.60;59.32;100950.94;5305866;26;20872;-88
2023/12/19 03:44:05;;;;;;;2.28;2.12;;;;;;;2.57;59.31;100956.03;5306670;26;20440;-88
2023/12/19 03:46:31;;;;;;;1.77;1.67;;;;;;;2.59;59.32;100951.78;5325040;26;20072;-88
2023/12/19 03:48:56;;;;;;;1.12;1.10;;;;;;;2.61;59.32;100942.44;5325178;26;20071;-88
2023/12/19 03:51:22;;;;;;;2.78;2.65;;;;;;;2.39;59.31;100943.69;5306412;26;20083;-88
2023/12/19 03:53:47;;;;;;;1.73;1.27;;;;;;;2.51;59.32;100941.34;5324372;26;29222;-87
2023/12/19 03:56:12;;;;;;;3.67;3.37;;;;;;;2.54;59.31;100943.97;5324677;26;20068;-88
2023/12/19 03:58:39;;;;;;;2.60;2.45;;;;;;;2.53;59.31;100937.12;5324931;26;20079;-87
2023/12/19 04:01:05;;;;;;;3.28;1.98;;;;;;;2.50;59.32;100942.19;5307124;26;20102;-88
2023/12/19 04:03:30;;;;;;;2.03;1.92;;;;;;;2.59;59.32;100944.06;5324566;26;20111;-87
2023/12/19 04:05:55;;;;;;;1.92;1.80;;;;;;;2.60;59.32;100948.38;5324270;26;25299;-87
2023/12/19 04:08:21;;;;;;;1.30;1.20;;;;;;;2.53;59.31;100947.41;5324329;26;29545;-87
2023/12/19 04:10:46;;;;;;;1.75;1.55;;;;;;;2.67;59.32;100950.25;5324866;26;24337;-88
2023/12/19 04:13:11;;;;;;;2.20;0.75;;;;;;;2.68;59.32;100945.13;5324328;26;24106;-88
2023/12/19 04:15:37;;;;;;;1.30;1.27;;;;;;;2.75;59.33;100946.09;5305507;26;30744;-88
2023/12/19 04:18:03;;;;;;;0.70;0.70;;;;;;;2.62;59.32;100955.31;5306409;26;20412;-87
2023/12/19 04:20:28;;;;;;;1.80;1.70;;;;;;;2.55;59.32;100950.84;5344971;26;20060;-88
2023/12/19 04:22:54;;;;;;;0.47;0.47;;;;;;;2.53;59.31;100960.25;5305785;26;31996;-87
2023/12/19 04:25:19;;;;;;;0.75;0.75;;;;;;;2.45;59.31;100960.09;5324957;26;20356;-88
2023/12/19 04:27:45;;;;;;;0.22;0.22;;;;;;;2.72;59.32;100961.47;5305900;26;20076;-87
2023/12/19 04:30:10;;;;;;;1.55;1.45;;;;;;;2.70;59.32;100963.16;5324984;26;20102;-88
2023/12/19 04:32:36;;;;;;;0.15;0.15;;;;;;;2.45;59.31;100957.53;5324803;26;20146;-88
2023/12/19 04:35:01;;;;;;;1.75;1.65;;;;;;;2.37;59.31;100965.94;5325035;26;20112;-88
2023/12/19 04:37:27;;;;;;;2.92;0.55;;;;;;;2.45;59.31;100960.09;5306278;26;20360;-88
2023/12/19 04:39:52;;;;;;;2.30;1.08;;;;;;;2.41;59.30;100958.31;5325011;26;20082;-88
2023/12/19 04:42:18;;;;;;;1.80;1.70;;;;;;;2.14;59.29;100956.03;5324408;26;20425;-88
2023/12/19 04:44:46;;;;;;;0.75;0.75;;;;;;;2.32;59.30;100950.41;5324950;26;20087;-88
2023/12/19 04:47:11;;;;;;;2.00;1.83;;;;;;;2.46;59.31;100943.84;5306542;26;20093;-88
2023/12/19 04:49:37;;;;;;;2.50;2.33;;;;;;;2.60;59.32;100956.09;5324855;26;20060;-86
2023/12/19 04:52:03;;;;;;;1.92;1.83;;;;;;;2.47;59.31;100955.00;5324640;26;20064;-87
2023/12/19 04:54:28;;;;;;;2.95;2.75;;;;;;;2.44;59.31;100960.06;5306409;26;20429;-88
2023/12/19 04:56:53;;;;;;;2.37;2.28;;;;;;;2.46;59.31;100973.81;5324100;26;22393;-87
2023/12/19 04:59:19;;;;;;;1.95;1.85;;;;;;;2.49;59.31;100973.88;5324124;26;26162;-88
2023/12/19 05:01:44;;;;;;;1.20;1.20;;;;;;;2.10;59.29;100994.44;5324020;26;30679;-87
2023/12/19 05:04:09;;;;;;;1.70;1.60;;;;;;;2.25;59.30;100992.22;5323641;26;33821;-88
2023/12/19 05:06:35;;;;;;;2.45;2.25;;;;;;;2.26;59.30;100981.09;5324312;26;20360;-88
2023/12/19 05:09:00;;;;;;;0.30;0.30;;;;;;;2.23;59.30;100987.88;5324337;26;20442;-88
2023/12/19 05:11:26;;;;;;;0.15;0.10;;;;;;;2.27;59.29;100976.84;5324640;26;20123;-88
2023/12/19 05:13:51;;;;;;;1.77;1.67;;;;;;;2.24;59.30;100980.22;5324952;26;20100;-88
2023/12/19 05:16:17;;;;;;;1.60;1.23;;;;;;;2.17;59.30;100980.06;5323877;26;24099;-88
2023/12/19 05:18:43;;;;;;;3.03;1.92;;;;;;;2.17;59.30;100970.66;5325578;26;20381;-88
2023/12/19 05:21:09;;;;;;;0.90;0.90;;;;;;;2.26;59.30;100962.25;5325260;26;20072;-88
2023/12/19 05:23:35;;;;;;;1.12;1.12;;;;;;;2.34;59.30;100953.00;5307329;26;20094;-88
2023/12/19 05:26:01;;;;;;;1.52;1.10;;;;;;;2.40;59.30;100958.28;5306954;26;20048;-87
2023/12/19 05:28:26;;;;;;;1.80;1.12;;;;;;;2.40;59.31;100964.28;5325652;26;20067;-88
2023/12/19 05:30:56;;;;;;;2.03;1.87;;;;;;;2.42;59.30;100948.91;5324937;26;24016;-87
2023/12/19 05:33:22;;;;;;;1.17;1.10;;;;;;;2.33;59.30;100943.56;5326227;26;20067;-88
2023/12/19 05:35:48;;;;;;;1.77;1.67;;;;;;;2.32;59.30;100959.81;5306821;26;20077;-89
2023/12/19 05:38:13;;;;;;;1.17;1.10;;;;;;;2.08;59.29;100963.59;5324823;26;25983;-88
2023/12/19 05:40:42;;;;;;;0.90;0.90;;;;;;;2.19;59.29;100950.13;5324576;26;30157;-88
2023/12/19 05:43:08;;;;;;;2.30;2.12;;;;;;;2.12;59.29;100947.41;5325555;26;20109;-88
2023/12/19 05:45:34;;;;;;;1.23;1.12;;;;;;;2.17;59.29;100937.25;5288992;26;20048;-87
2023/12/19 05:47:59;;;;;;;1.95;0.73;;;;;;;2.03;59.28;100936.09;5306785;26;20051;-88
2023/12/19 05:50:24;;;;;;;1.20;1.10;;;;;;;1.93;59.28;100942.72;5306682;26;20343;-88
2023/12/19 05:52:50;;;;;;;1.20;0.57;;;;;;;2.00;59.29;100939.47;5324775;26;26547;-88
2023/12/19 05:55:15;;;;;;;1.37;1.27;;;;;;;1.94;59.29;100934.19;5287698;26;32062;-88
2023/12/19 05:57:40;;;;;;;1.80;1.67;;;;;;;1.89;59.27;100930.62;5324641;26;22416;-88
2023/12/19 06:00:07;;;;;;;0.00;0.00;;;;;;;1.93;59.29;100927.31;5325542;26;20108;-87
2023/12/19 06:02:32;;;;;;;7.68;2.00;;;;;;;2.08;59.29;100914.78;5325611;26;20060;-88
2023/12/19 06:05:00;;;;;;;1.17;1.10;;;;;;;2.09;59.29;100934.50;5325365;26;20100;-88
2023/12/19 06:07:25;;;;;;;0.32;0.32;;;;;;;1.88;59.28;100925.47;5345452;26;20381;-88
2023/12/19 06:09:51;;;;;;;0.88;0.85;;;;;;;1.94;59.28;100926.50;5325359;26;20071;-87
2023/12/19 06:12:17;;;;;;;2.65;1.20;;;;;;;2.10;59.29;100923.41;5307370;26;20212;-87
2023/12/19 06:14:43;;;;;;;0.85;0.75;;;;;;;2.03;59.29;100923.25;5325901;26;20437;-88
2023/12/19 06:17:08;;;;;;;1.33;1.33;;;;;;;2.05;59.29;100914.72;5325293;26;20405;-88
2023/12/19 06:19:34;;;;;;;1.00;0.98;;;;;;;1.82;59.27;100910.81;5307005;26;20056;-88
2023/12/19 06:21:59;;;;;;;1.37;1.30;;;;;;;1.82;59.27;100919.38;5307021;26;20071;-88
2023/12/19 06:24:25;;;;;;;1.92;1.83;;;;;;;1.90;59.27;100924.69;5306985;26;20076;-87
2023/12/19 06:26:50;;;;;;;0.22;0.22;;;;;;;1.93;59.29;100929.03;5324486;26;20070;-88
2023/12/19 06:29:16;;;;;;;2.97;1.52;;;;;;;1.93;59.28;100913.62;5323850;26;20069;-88
2023/12/19 06:31:45;;;;;;;3.37;3.08;;;;;;;1.82;59.27;100914.25;5306956;26;20201;-87
2023/12/19 06:34:11;;;;;;;0.30;0.30;;;;;;;1.68;59.26;100912.22;5325883;26;20052;-88
2023/12/19 06:36:38;;;;;;;0.30;0.30;;;;;;;2.00;59.29;100907.78;5324853;26;20743;-88
2023/12/19 06:39:04;;;;;;;3.60;2.42;;;;;;;1.98;59.28;100914.59;5325590;26;20060;-88
2023/12/19 06:41:29;;;;;;;2.87;1.35;;;;;;;2.01;59.28;100923.22;5325198;26;20122;-88
2023/12/19 06:43:54;;;;;;;0.30;0.30;;;;;;;2.23;59.30;100923.66;5325336;26;20049;-88
2023/12/19 06:46:20;;;;;;;0.03;0.03;;;;;;;2.03;59.28;100925.81;5325176;26;20405;-89
2023/12/19 06:48:45;;;;;;;1.75;1.40;;;;;;;2.10;59.29;100920.81;5325391;26;20064;-88
2023/12/19 06:51:25;;;;;;;2.05;1.90;;;;;;;1.97;59.28;100926.56;5306896;26;20112;-87
2023/12/19 06:53:51;;;;;;;5.50;2.00;;;;;;;2.22;59.30;100925.37;5307284;26;20056;-88
2023/12/19 06:56:17;;;;;;;2.10;1.95;;;;;;;2.11;59.29;100932.84;5288654;26;20392;-88
2023/12/19 06:58:42;;;;;;;1.35;1.33;;;;;;;1.93;59.28;100926.47;5323847;26;30831;-89
2023/12/19 07:01:08;;;;;;;2.65;2.10;;;;;;;1.98;59.29;100930.84;5306273;26;20127;-88
2023/12/19 07:03:33;;;;;;;1.15;1.10;;;;;;;2.21;59.29;100927.91;5306333;26;20064;-88
2023/12/19 07:05:59;;;;;;;0.13;0.13;;;;;;;2.10;59.29;100938.81;5288537;26;20135;-88
2023/12/19 07:08:24;;;;;;;0.57;0.57;;;;;;;2.05;59.28;100937.84;5306933;26;20101;-89
2023/12/19 07:10:52;;;;;;;2.92;2.72;;;;;;;1.96;59.28;100936.78;5345126;26;20054;-88
2023/12/19 07:13:17;;;;;;;0.32;0.32;;;;;;;2.06;59.29;100920.72;5325214;26;20049;-88
2023/12/19 07:15:43;;;;;;;0.22;0.22;;;;;;;1.99;59.29;100924.87;5344352;26;26171;-89
2023/12/19 07:18:08;;;;;;;1.40;0.90;;;;;;;2.00;59.29;100934.31;5324953;26;20053;-88
2023/12/19 07:20:33;;;;;;;3.90;3.58;;;;;;;2.21;59.29;100927.91;5288617;26;20476;-88
2023/12/19 07:22:59;;;;;;;1.35;1.20;;;;;;;2.13;59.29;100917.47;5323839;26;28752;-88
2023/12/19 07:25:26;;;;;;;3.00;2.78;;;;;;;2.25;59.30;100910.00;5306672;26;20170;-89
2023/12/19 07:27:51;;;;;;;5.05;1.15;;;;;;;2.36;59.31;100917.91;5288648;26;20056;-88
2023/12/19 07:30:16;;;;;;;0.85;0.85;;;;;;;2.47;59.31;100917.31;5306711;26;20059;-89
2023/12/19 07:32:42;;;;;;;2.62;2.17;;;;;;;2.50;59.32;100924.22;5306705;26;20071;-88
2023/12/19 07:35:08;;;;;;;0.28;0.28;;;;;;;2.48;59.31;100938.72;5306786;26;20124;-88
2023/12/19 07:37:33;;;;;;;4.60;3.70;;;;;;;2.40;59.30;100945.44;5325307;26;20101;-89
2023/12/19 07:39:59;;;;;;;0.62;0.52;;;;;;;2.35;59.30;100953.03;5306194;26;20076;-89
2023/12/19 07:42:24;;;;;;;1.08;1.08;;;;;;;2.28;59.29;100943.47;5306379;26;20108;-89
2023/12/19 07:44:51;;;;;;;0.60;0.60;;;;;;;2.28;59.29;100929.75;5288494;26;20080;-89
2023/12/19 07:47:17;;;;;;;5.90;2.65;;;;;;;2.31;59.30;100930.69;5307306;26;20091;-89
2023/12/19 07:49:42;;;;;;;3.12;1.10;;;;;;;2.30;59.30;100934.09;5306792;26;20060;-88
2023/12/19 07:52:08;;;;;;;0.30;0.30;;;;;;;2.41;59.30;100929.19;5305906;26;29293;-88
2023/12/19 07:54:33;;;;;;;2.95;2.75;;;;;;;2.59;59.32;100931.22;5306735;26;20056;-87
2023/12/19 07:56:58;;;;;;;2.37;1.65;;;;;;;2.54;59.31;100938.84;5287894;26;20354;-89
2023/12/19 07:59:24;;;;;;;0.22;0.22;;;;;;;2.44;59.31;100935.25;5324221;26;26760;-89
2023/12/19 08:01:49;;;;;;;3.50;1.30;;;;;;;2.40;59.30;100941.16;5305741;26;30808;-87
2023/12/19 08:04:14;;;;;;;0.70;0.70;;;;;;;2.49;59.31;100935.31;5306359;26;20064;-88
2023/12/19 08:06:41;;;;;;;0.77;0.77;;;;;;;2.55;59.32;100938.00;5305602;26;27706;-88
2023/12/19 08:09:10;;;;;;;1.35;1.25;;;;;;;2.48;59.31;100946.44;5306744;26;20124;-88
2023/12/19 08:11:36;;;;;;;0.57;0.57;;;;;;;2.12;59.29;100941.41;5307655;26;20045;-88
2023/12/19 08:14:01;;;;;;;0.95;0.95;;;;;;;2.29;59.31;100940.06;5325102;26;20282;-88
2023/12/19 08:16:26;;;;;;;2.17;0.88;;;;;;;2.38;59.31;100947.09;5306372;26;21875;-88
2023/12/19 08:18:52;;;;;;;3.78;3.45;;;;;;;2.38;59.31;100945.41;5324330;26;21722;-89
2023/12/19 08:21:17;;;;;;;1.75;1.65;;;;;;;2.56;59.32;100955.16;5306149;26;20178;-89
2023/12/19 08:23:45;;;;;;;1.67;1.58;;;;;;;2.68;59.33;100951.97;5306850;26;20044;-89
2023/12/19 08:26:10;;;;;;;3.00;2.75;;;;;;;2.49;59.31;100952.44;5307226;26;20452;-88
2023/12/19 08:28:35;;;;;;;2.12;1.98;;;;;;;2.69;59.32;100959.72;5306518;26;20052;-88
2023/12/19 08:31:03;;;;;;;0.98;0.98;;;;;;;2.64;59.32;100950.19;5287449;26;28540;-88
2023/12/19 08:33:28;;;;;;;2.42;2.28;;;;;;;2.58;59.33;100940.62;5288799;26;20452;-88
2023/12/19 08:35:54;;;;;;;0.88;0.88;;;;;;;2.51;59.32;100943.94;5324817;26;20102;-88
2023/12/19 08:38:19;;;;;;;1.60;1.50;;;;;;;2.71;59.32;100940.03;5324135;26;28129;-87
2023/12/19 08:40:45;;;;;;;1.27;1.20;;;;;;;2.69;59.32;100949.44;5306179;26;20096;-88
2023/12/19 08:43:11;;;;;;;4.30;4.00;;;;;;;2.98;59.34;100951.66;5306322;26;20111;-88
2023/12/19 08:45:36;;;;;;;2.83;2.10;;;;;;;3.07;59.34;100946.66;5324956;26;20106;-88
2023/12/19 08:48:03;;;;;;;1.65;1.55;;;;;;;3.00;59.34;100950.84;5324834;26;20448;-88
2023/12/19 08:50:29;;;;;;;2.60;2.50;;;;;;;3.08;59.34;100953.59;5324930;26;20091;-88
2023/12/19 08:52:54;;;;;;;2.92;0.25;;;;;;;2.99;59.34;100943.97;5306333;26;20053;-88
2023/12/19 08:55:20;;;;;;;0.52;0.52;;;;;;;3.03;59.35;100947.47;5324723;26;20095;-88
2023/12/19 08:57:45;;;;;;;1.73;1.62;;;;;;;2.95;59.35;100937.06;5306313;26;20130;-89
2023/12/19 09:00:17;;;;;;;3.78;3.05;;;;;;;3.10;59.35;100931.31;5324100;26;26112;-88
2023/12/19 09:02:43;;;;;;;9.07;1.70;;;;;;;3.22;59.35;100923.78;5307373;26;20052;-88
2023/12/19 09:05:12;;;;;;;1.90;1.80;;;;;;;3.37;59.36;100913.75;5287724;26;20060;-87
2023/12/19 09:07:38;;;;;;;3.17;1.90;;;;;;;3.44;59.37;100911.28;5287715;26;20063;-87
2023/12/19 09:10:05;;;;;;;2.72;2.50;;;;;;;3.32;59.37;100912.81;5324315;26;20052;-88
2023/12/19 09:12:30;;;;;;;6.37;3.28;;;;;;;3.36;59.36;100903.44;5324543;26;20068;-88
2023/12/19 09:14:56;;;;;;;3.50;1.83;;;;;;;3.40;59.37;100900.06;5324381;26;20079;-88
2023/12/19 09:17:21;;;;;;;4.40;3.35;;;;;;;3.54;59.38;100902.84;5323834;26;25959;-89
2023/12/19 09:19:47;;;;;;;5.95;4.10;;;;;;;3.56;59.37;100899.47;5343681;26;24103;-88
2023/12/19 09:22:12;;;;;;;2.10;1.60;;;;;;;3.63;59.38;100895.25;5323931;26;20428;-88
2023/12/19 09:24:37;;;;;;;0.73;0.73;;;;;;;3.49;59.37;100884.75;5323801;26;21104;-89
2023/12/19 09:27:03;;;;;;;0.05;0.05;;;;;;;3.76;59.39;100871.41;5344026;26;20064;-89
2023/12/19 09:29:29;;;;;;;2.05;1.95;;;;;;;3.63;59.38;100867.81;5324323;26;20432;-88
2023/12/19 09:31:54;;;;;;;12.02;4.47;;;;;;;3.60;59.37;100867.78;5323880;26;20068;-88
2023/12/19 09:34:20;;;;;;;6.20;3.20;;;;;;;3.76;59.38;100867.97;5305938;26;20122;-88
2023/12/19 09:36:45;;;;;;;4.50;2.75;;;;;;;3.85;59.39;100852.66;5324081;26;20087;-88
2023/12/19 09:39:14;;;;;;;1.80;1.70;;;;;;;3.83;59.38;100846.63;5323959;26;20346;-88
2023/12/19 09:41:45;;;;;;;10.68;1.42;;;;;;;3.79;59.39;100844.84;5324644;26;20044;-88
2023/12/19 09:44:10;;;;;;;2.22;2.12;;;;;;;4.02;59.40;100833.09;5325036;26;20162;-88
2023/12/19 09:46:35;;;;;;;1.17;0.85;;;;;;;3.97;59.39;100827.03;5324221;26;20382;-89
2023/12/19 09:49:02;;;;;;;2.95;1.98;;;;;;;4.10;59.40;100821.19;5323475;26;27197;-88
2023/12/19 09:51:30;;;;;;;1.40;1.30;;;;;;;4.01;59.40;100814.19;5306096;26;20044;-88
2023/12/19 09:53:55;;;;;;;5.18;3.53;;;;;;;3.78;59.39;100817.34;5305680;26;20080;-88
2023/12/19 09:56:22;;;;;;;2.67;2.35;;;;;;;3.75;59.38;100801.84;5324067;26;20061;-87
2023/12/19 09:58:48;;;;;;;3.60;1.67;;;;;;;3.72;59.38;100800.09;5305758;26;20447;-88
2023/12/19 10:01:17;;;;;;;1.37;1.15;;;;;;;3.67;59.38;100794.03;5305660;26;20040;-89
2023/12/19 10:03:43;;;;;;;2.12;1.55;;;;;;;3.47;59.38;100795.50;5307411;26;20322;-89
2023/12/19 10:06:09;;;;;;;1.90;1.15;;;;;;;3.77;59.39;100788.16;5325138;26;20086;-86
2023/12/19 10:08:35;;;;;;;7.85;3.42;;;;;;;3.71;59.38;100780.34;5325257;26;20048;-87
2023/12/19 10:11:00;;;;;;;1.52;0.75;;;;;;;3.78;59.39;100782.16;5288676;26;20427;-86
2023/12/19 10:13:33;;;;;;;4.25;3.08;;;;;;;3.78;59.39;100769.28;5325390;26;20111;-89
2023/12/19 10:15:59;;;;;;;3.40;2.58;;;;;;;3.98;59.39;100764.34;5325190;26;20082;-87
2023/12/19 10:18:25;;;;;;;1.52;1.42;;;;;;;4.05;59.41;100763.59;5325024;26;20052;-88
2023/12/19 10:20:52;;;;;;;3.25;3.03;;;;;;;4.16;59.41;100751.66;5325063;26;20063;-88
2023/12/19 10:23:19;;;;;;;8.10;2.70;;;;;;;4.15;59.41;100746.50;5325038;26;20417;-89
2023/12/19 10:25:51;;;;;;;1.17;1.10;;;;;;;4.06;59.41;100746.44;5288408;26;20542;-89
2023/12/19 10:28:17;;;;;;;7.32;3.00;;;;;;;3.91;59.40;100739.38;5307219;26;20056;-89
2023/12/19 10:30:43;;;;;;;2.65;2.47;;;;;;;4.01;59.39;100734.34;5325067;26;20150;-87
2023/12/19 10:33:08;;;;;;;5.25;4.80;;;;;;;4.03;59.40;100736.09;5324821;26;20061;-89
2023/12/19 10:35:37;;;;;;;3.78;3.47;;;;;;;4.12;59.40;100726.72;5344430;26;21929;-89
2023/12/19 10:38:03;;;;;;;3.40;3.10;;;;;;;4.18;59.41;100731.06;5288039;26;20048;-88
2023/12/19 10:40:28;;;;;;;10.30;4.90;;;;;;;4.12;59.40;100731.87;5324434;26;22574;-88
2023/12/19 10:42:55;;;;;;;5.60;4.05;;;;;;;4.05;59.40;100729.25;5324217;26;20057;-88
2023/12/19 10:45:21;;;;;;;8.88;2.80;;;;;;;4.23;59.41;100738.00;5287430;26;20106;-89
2023/12/19 10:47:46;;;;;;;1.48;1.45;;;;;;;4.21;59.41;100734.53;5324573;26;20087;-88
2023/12/19 10:50:11;;;;;;;0.70;0.70;;;;;;;4.31;59.42;100727.78;5344388;26;28676;-89
2023/12/19 10:52:37;;;;;;;4.50;2.00;;;;;;;4.31;59.42;100717.47;5323951;26;34395;-89
2023/12/19 10:55:06;;;;;;;2.92;2.40;;;;;;;4.20;59.40;100716.47;5305649;26;29242;-89
2023/12/19 10:57:32;;;;;;;2.45;2.35;;;;;;;4.12;59.40;100710.41;5307725;26;20059;-89
2023/12/19 11:00:09;;;;;;;3.33;2.85;;;;;;;4.23;59.41;100706.19;5306902;26;20041;-89
2023/12/19 11:02:45;;;;;;;2.22;2.08;;;;;;;4.10;59.40;100709.53;5307137;26;20075;-88
2023/12/19 11:05:36;;;;;;;2.53;2.08;;;;;;;4.24;59.41;100700.19;5345247;26;20068;-88
2023/12/19 11:08:15;;;;;;;1.67;1.45;;;;;;;4.18;59.41;100690.69;5325058;26;20063;-89
2023/12/19 11:10:42;;;;;;;1.52;1.42;;;;;;;4.14;59.41;100688.09;5307828;26;20063;-89
2023/12/19 11:13:08;;;;;;;4.10;1.58;;;;;;;3.97;59.39;100699.09;5306606;26;20056;-89
2023/12/19 11:15:34;;;;;;;1.23;1.23;;;;;;;3.95;59.39;100695.63;5325284;26;20334;-88
2023/12/19 11:18:07;;;;;;;6.18;2.35;;;;;;;4.03;59.40;100685.44;5306724;26;20097;-90
2023/12/19 11:20:39;;;;;;;4.43;2.92;;;;;;;3.87;59.39;100686.12;5306717;26;20119;-89
2023/12/19 11:23:08;;;;;;;1.02;1.02;;;;;;;4.03;59.40;100671.69;5307391;26;20068;-89
2023/12/19 11:25:34;;;;;;;6.40;5.40;;;;;;;3.96;59.39;100673.31;5325401;26;20110;-89
2023/12/19 11:28:01;;;;;;;7.18;3.53;;;;;;;4.07;59.40;100657.97;5306668;26;20119;-89